Accueil
METAR-TAF:

METAR-TAF

Aéroports :

Aéroport international de Wattay

Vientiane, Laos

latitude: 17-57N, longitude: 102-34E, altitude: 171 m

Observation

Le bulletin a été fait il y a 19 minutes, à 08:00 UTC
Vent 2 kt de sud/sud-est
Température 34°C
Humidité 63%
Pression 1005 hPa
Visibilité 10 km ou plus
Nuages épars à une hauteur de 1600 ft

METAR: VLVT 030800Z 16002KT 9999 SCT016 34/26 Q1005 NOSIG

Heure: 15:19 (08:19 UTC)

Prévision

Le bulletin a été fait il y a 3 heures et 19 minutes, à 05:00 UTC
Prévision valable du 03 à 06 UTC au 04 à 06 UTC
Vent 4 kt de sud
Visibilité: 8000 m
Nuages épars à une hauteur de 2000 ft
Nuages épars à une hauteur de 5000 ft

TAF: VLVT 030500Z 0306/0406 18004KT 8000 SCT020 SCT050

Observations et prévisions météorologiques de plus de 4000 aéroports (messages METAR et TAF).

Les stations disponibles sont représentées par des disques jaunes et rouges sur la carte.

Passer la souris dessus pour voir le nom de la station.

Cliquer dessus pour voir les observations et prévisions météorologiques.

Pour changer de carte: cliquez sur les boutons verts avec une croix noire pour zoomer, sur le bouton vert avec un tiret pour effectuer un zoom arrière, ou sur les flèches vertes pour les cartes adjacentes.


METAR-TAF: